Rosecrans Memorial Airport St Joseph US
ICAO: KSTJ
IATA: STJ
Category: Medium
Scheduled Services: No

Elevation: 826 ft
TransAlt. 18000 ft.

Airport Communications:
ST JOSEPH APP/DEP:120.35
ATIS:125.05
CTAF:126.9
GND:121.9
ANG COMD POST:34.94
ST JOSEPH TWR:126.9
UNICOM:122.95

KSTJ Zoom In..

If you have problems with the map follow the link
https://www.worldairports.se/pages/airport.php?
ICAO=KSTJ

Runways:

(A) RW 13 length 4797 ft width 75 ft
---- / hdg 132

(B) RW 17 length 8061 ft width 150 ft
---- / hdg 176

(C) RW 31 length 4797 ft width 75 ft
---- / hdg 312

(D) RW 35 length 8061 ft width 150 ft
ILS 110.30 / hdg 356

Location; KSTJ
Day. 17 / Time. 23.53 Zulu
* Altimeter: 29.94
* Temperature: 01° c. 33.8°f.
* Wind from: 130° Speed 12 kn with Gusts up to 21 kn.
Dewpoint: -01° c.
Visibility: 6 Statute Miles.
Clouds: Overcast 700 ft.
Conditions: Mist.

KSTJ 172353Z 13012G21KT 6SM BR OVC007 01/M01 A2994 RMK AO2 FZRAE00 SLP146 P0000 60002 I1001 I6006 T00061011 10006 21006 58043


Wind From 130°
Speed 12 kn.

 
 
jpsmedia worldairports.se 2020   terms of use